Marchen Maersk — OWUJ2 — position and weather

sailwx.info

Track history (hours):
 
Tides and Currents Weather Stations Pressure Air Temp Water Temp Dewpoint Dewpoint Depression Visibility Wind Speed Wind Dir Waves Ship Positions

Marchen Maersk

Last reported at 2018-Jan-11 19:39 UTC. Time now 2018-Jan-19 19:45 UTC.
Position N 36°21' E 015°02'.
Warning: this ship's position is 8 days out of date.

Length 399 m; draft 13.4 m.

Type: Ship. MMSI: 219630000.

Date/timePositionNaut miles runAvg speedWind from/ knotsBaromVisibWave heightAir tempDewpointWater temp
2018-Jan-11 19:39N 36°21' E 015°02'320.2
2018-Jan-11 19:30N 36°22' E 014°59'1020.1
2018-Jan-11 18:59N 36°25' E 014°47'1020.1
2018-Jan-11 18:30N 36°28' E 014°35'1020.1
2018-Jan-11 18:00N 36°31' E 014°23'1020.0
2018-Jan-11 17:30N 36°34' E 014°11'1020.1
2018-Jan-11 17:00N 36°37' E 013°60'1120.5
2018-Jan-11 16:28N 36°41' E 013°47'920.2
2018-Jan-11 16:00N 36°44' E 013°36'90019.9
2018-Jan-09 18:39N 36°01' W 005°01'420.4
2018-Jan-09 18:29N 36°00' W 005°05'1021.0
2018-Jan-09 18:00N 35°59' W 005°17'1020.8
2018-Jan-09 17:30N 35°57' W 005°30'1019.3
2018-Jan-09 17:00N 35°55' W 005°41'1018.5
2018-Jan-09 16:30N 35°54' W 005°53'1018.6
2018-Jan-09 15:57N 35°53' W 006°06'817.8
2018-Jan-09 15:30N 35°55' W 006°15'20316.9
2018-Jan-09 03:27N 37°44' W 009°50'1518.1
2018-Jan-09 02:37N 37°59' W 009°55'1718.6
2018-Jan-09 01:41N 38°16' W 009°59'419.1
2018-Jan-09 01:30N 38°19' W 010°00'918.9
2018-Jan-09 01:01N 38°28' W 010°03'1018.8
2018-Jan-09 00:30N 38°38' W 010°06'918.8
2018-Jan-09 00:00N 38°47' W 010°07'918.8
2018-Jan-08 23:30N 38°56' W 010°07'918.8
2018-Jan-08 23:00N 39°05' W 010°06'1018.8
2018-Jan-08 22:28N 39°16' W 010°05'919.1
2018-Jan-08 22:01N 39°24' W 010°04'66717.9
2018-Jan-07 08:51N 49°36' W 003°51'816.0
2018-Jan-07 08:23N 49°39' W 003°41'616.3
2018-Jan-07 08:00N 49°42' W 003°33'816.6
2018-Jan-07 07:30N 49°46' W 003°22'917.2
2018-Jan-07 07:00N 49°51' W 003°10'918.0
2018-Jan-07 06:30N 49°55' W 002°58'918.6
2018-Jan-07 06:01N 49°59' W 002°45'1019.5
2018-Jan-07 05:30N 50°01' W 002°30'4419.7
2018-Jan-07 03:18N 50°13' W 001°25'518.0
2018-Jan-07 03:00N 50°14' W 001°17'1616.7
2018-Jan-07 02:02N 50°19' W 000°52'115.8
2018-Jan-07 01:58N 50°19' W 000°51'715.3
2018-Jan-07 01:30N 50°21' W 000°40'1514.7
2018-Jan-07 00:30N 50°26' W 000°18'714.7
2018-Jan-07 00:00N 50°27' W 000°07'815.2
2018-Jan-06 23:30N 50°29' E 000°05'815.6
2018-Jan-06 23:00N 50°32' E 000°16'816.2
2018-Jan-06 22:30N 50°34' E 000°28'917.0
2018-Jan-06 22:00N 50°38' E 000°40'918.2
2018-Jan-06 21:30N 50°44' E 000°52'918.9
2018-Jan-06 21:00N 50°49' E 001°04'919.0
2018-Jan-06 20:30N 50°55' E 001°16'918.9
2018-Jan-06 20:00N 51°01' E 001°27'917.9
2018-Jan-06 19:30N 51°07' E 001°37'817.0
2018-Jan-06 19:00N 51°13' E 001°47'816.0
2018-Jan-06 18:31N 51°20' E 001°53'815.3
2018-Jan-06 18:00N 51°27' E 001°60'715.0
2018-Jan-06 17:31N 51°32' E 002°08'714.9
2018-Jan-06 17:01N 51°38' E 002°16'714.8
2018-Jan-06 16:30N 51°43' E 002°24'3614.7
2018-Jan-06 14:02N 51°59' E 003°17'116.9
2018-Jan-06 13:59N 51°59' E 003°18'817.2
2018-Jan-06 13:30N 52°00' E 003°32'917.3
2018-Jan-06 13:00N 52°02' E 003°45'510.4
2018-Jan-06 12:30N 52°02' E 003°54'510.8
2018-Jan-06 12:00N 51°60' E 004°02'2 5.0
2018-Jan-06 11:30N 51°58' E 004°04'2 4.9
2018-Jan-06 11:00N 51°59' E 004°00'1 2.4
2018-Jan-06 10:30N 51°57' E 004°00'0 0.2
2018-Jan-06 09:58N 51°57' E 004°00'0 0.0
2018-Jan-06 09:28N 51°57' E 004°00'0 0.0
2018-Jan-06 08:58N 51°57' E 004°00'0 0.0
2018-Jan-06 08:28N 51°57' E 004°00'0 0.0
2018-Jan-06 07:58N 51°57' E 004°00'0 0.0
2018-Jan-06 07:28N 51°57' E 004°00'0 0.0
2018-Jan-06 06:58N 51°57' E 004°00'0 0.0
2018-Jan-06 06:28N 51°57' E 004°00'0 0.0
2018-Jan-06 05:58N 51°57' E 004°00'0 0.0
2018-Jan-06 05:28N 51°57' E 004°00'0 0.0
2018-Jan-06 04:58N 51°57' E 004°00'0 0.0
2018-Jan-06 04:28N 51°57' E 004°00'0 0.0
2018-Jan-06 03:58N 51°57' E 004°00'0 0.0
2018-Jan-06 03:28N 51°57' E 004°00'0 0.0
2018-Jan-06 02:58N 51°57' E 004°00'0 0.0
2018-Jan-06 02:28N 51°57' E 004°00'0 0.0
2018-Jan-06 01:58N 51°57' E 004°00'0 0.0
2018-Jan-06 01:28N 51°57' E 004°00'0 0.0
2018-Jan-06 00:58N 51°57' E 004°00'0 0.0
2018-Jan-06 00:28N 51°57' E 004°00'0 0.0
2018-Jan-05 23:58N 51°57' E 004°00'0 0.0
2018-Jan-05 23:28N 51°57' E 004°00'0 0.0
2018-Jan-05 22:58N 51°57' E 004°00'0 0.0
2018-Jan-05 22:28N 51°57' E 004°00'0 0.0
2018-Jan-05 21:58N 51°57' E 004°00'0 0.0
2018-Jan-05 21:28N 51°57' E 004°00'0 0.0
2018-Jan-05 20:58N 51°57' E 004°00'0 0.0
2018-Jan-05 20:28N 51°57' E 004°00'0 0.0
2018-Jan-05 19:58N 51°57' E 004°00'0 0.0
2018-Jan-05 19:28N 51°57' E 004°00'0 0.0
2018-Jan-05 18:58N 51°57' E 004°00'0 0.0
2018-Jan-05 18:28N 51°57' E 004°00'0 0.0
2018-Jan-05 17:58N 51°57' E 004°00'0 0.0
2018-Jan-05 17:28N 51°57' E 004°00'0 0.0
2018-Jan-05 16:58N 51°57' E 004°00'0 0.0
2018-Jan-05 16:28N 51°57' E 004°00'0 0.0
2018-Jan-05 15:58N 51°57' E 004°00'0 0.0
2018-Jan-05 15:28N 51°57' E 004°00'0 0.0
2018-Jan-05 14:58N 51°57' E 004°00'0 0.0
2018-Jan-05 14:28N 51°57' E 004°00'0 0.0
2018-Jan-05 13:58N 51°57' E 004°00'0 0.0
2018-Jan-05 13:25N 51°57' E 004°00'0 0.0
2018-Jan-05 12:58N 51°57' E 004°00'0 0.0
2018-Jan-05 12:28N 51°57' E 004°00'0 0.0
2018-Jan-05 11:58N 51°57' E 004°00'0 0.0
2018-Jan-05 11:28N 51°57' E 004°00'0 0.0
2018-Jan-05 10:58N 51°57' E 004°00'0 0.0
2018-Jan-05 10:25N 51°57' E 004°00'0 0.0
2018-Jan-05 09:58N 51°57' E 004°00'0 0.0
2018-Jan-05 09:28N 51°57' E 004°00'0 0.0
2018-Jan-05 08:58N 51°57' E 004°00'0 0.0
2018-Jan-05 08:28N 51°57' E 004°00'0 0.0
2018-Jan-05 07:58N 51°57' E 004°00'0 0.0
2018-Jan-05 07:28N 51°57' E 004°00'0 0.0
2018-Jan-05 06:58N 51°57' E 004°00'0 0.0
2018-Jan-05 06:28N 51°57' E 004°00'0 0.0
2018-Jan-05 05:58N 51°57' E 004°00'0 0.0
2018-Jan-05 05:28N 51°57' E 004°00'0 0.0
2018-Jan-05 04:58N 51°57' E 004°00'0 0.0
2018-Jan-05 04:28N 51°57' E 004°00'0 0.0
2018-Jan-05 03:58N 51°57' E 004°00'0 0.0
2018-Jan-05 03:28N 51°57' E 004°00'0 0.0
2018-Jan-05 02:58N 51°57' E 004°00'0 0.0
2018-Jan-05 02:28N 51°57' E 004°00'0 0.0
2018-Jan-05 01:58N 51°57' E 004°00'0 0.0
2018-Jan-05 01:28N 51°57' E 004°00'0 0.0
2018-Jan-05 00:58N 51°57' E 004°00'0 0.0
2018-Jan-05 00:28N 51°57' E 004°00'0 0.0
2018-Jan-04 23:58N 51°57' E 004°00'0 0.0
2018-Jan-04 23:28N 51°57' E 004°00'0 0.0
2018-Jan-04 22:58N 51°57' E 004°00'0 0.0
2018-Jan-04 22:28N 51°57' E 004°00'0 0.0
2018-Jan-04 21:58N 51°57' E 004°00'0 0.0
2018-Jan-04 21:28N 51°57' E 004°00'0 0.0
2018-Jan-04 20:58N 51°57' E 004°00'0 0.0
2018-Jan-04 20:28N 51°57' E 004°00'0 0.0
2018-Jan-04 19:58N 51°57' E 004°00'0 0.0
2018-Jan-04 19:28N 51°57' E 004°00'0 0.0
2018-Jan-04 18:58N 51°57' E 004°00'0 0.0
2018-Jan-04 18:28N 51°57' E 004°00'0 0.0
2018-Jan-04 17:58N 51°57' E 004°00'0 0.0
2018-Jan-04 17:28N 51°57' E 004°00'0 0.0
2018-Jan-04 16:58N 51°57' E 004°00'0 0.0
2018-Jan-04 16:28N 51°57' E 004°00'0 0.0
2018-Jan-04 15:58N 51°57' E 004°00'0 0.0
2018-Jan-04 15:28N 51°57' E 004°00'0 0.0
2018-Jan-04 14:58N 51°57' E 004°00'0 0.0
2018-Jan-04 14:28N 51°57' E 004°00'0 0.0
2018-Jan-04 13:58N 51°57' E 004°00'0 0.0
2018-Jan-04 13:28N 51°57' E 004°00'0 0.0
2018-Jan-04 12:58N 51°57' E 004°00'0 0.0
2018-Jan-04 12:25N 51°57' E 004°00'0 0.0
2018-Jan-04 11:58N 51°57' E 004°00'0 0.0
2018-Jan-04 11:28N 51°57' E 004°00'0 0.0
2018-Jan-04 10:58N 51°57' E 004°00'0 0.0
2018-Jan-04 10:28N 51°57' E 004°00'0 0.0
2018-Jan-04 09:58N 51°57' E 004°00'0 0.0
2018-Jan-04 09:28N 51°57' E 004°00'0 0.1
2018-Jan-04 09:01N 51°57' E 004°00'1 2.0
2018-Jan-04 08:30N 51°58' E 003°60'3 5.1
2018-Jan-04 08:00N 51°58' E 004°04'1 2.6
2018-Jan-04 07:30N 51°59' E 004°03'612.4
2018-Jan-04 07:00N 52°02' E 003°54'612.1
2018-Jan-04 06:30N 52°01' E 003°44'3 6.5
2018-Jan-04 06:00N 52°05' E 003°45'4 8.9
2018-Jan-04 05:30N 52°09' E 003°46'5 9.9
2018-Jan-04 05:00N 52°14' E 003°46'5 9.9
2018-Jan-04 04:30N 52°19' E 003°48'5 9.9
2018-Jan-04 04:00N 52°24' E 003°49'5 9.7
2018-Jan-04 03:31N 52°28' E 003°51'713.3
2018-Jan-04 03:00N 52°35' E 003°53'713.8
2018-Jan-04 02:30N 52°42' E 003°54'714.4
2018-Jan-04 02:00N 52°49' E 003°56'714.5
2018-Jan-04 01:30N 52°56' E 003°59'714.0
2018-Jan-04 01:00N 53°01' E 004°07'714.2
2018-Jan-04 00:30N 53°06' E 004°16'714.2
2018-Jan-04 00:00N 53°11' E 004°24'714.6
2018-Jan-03 23:31N 53°17' E 004°28'714.0
2018-Jan-03 22:59N 53°24' E 004°34'611.9
2018-Jan-03 22:29N 53°29' E 004°40'511.4
2018-Jan-03 22:00N 53°32' E 004°47'510.8
2018-Jan-03 21:30N 53°33' E 004°56'4 8.0
2018-Jan-03 21:00N 53°35' E 005°03'3 6.9
2018-Jan-03 20:30N 53°36' E 005°08'3 6.5
2018-Jan-03 20:00N 53°37' E 005°13'3 6.4
2018-Jan-03 19:30N 53°38' E 005°18'3 5.7
2018-Jan-03 19:00N 53°39' E 005°23'3 5.9
2018-Jan-03 18:30N 53°40' E 005°27'3 6.3
2018-Jan-03 18:00N 53°41' E 005°32'3 6.5
2018-Jan-03 17:30N 53°42' E 005°38'7411.2
2018-Jan-03 10:54N 53°60' E 007°39'715.3
2018-Jan-03 10:27N 53°54' E 007°45'613.2
2018-Jan-03 09:59N 53°52' E 007°55'612.6
2018-Jan-03 09:30N 53°50' E 008°05'612.3
2018-Jan-03 09:00N 53°45' E 008°12'611.4
2018-Jan-03 08:30N 53°42' E 008°20'611.2
2018-Jan-03 08:00N 53°38' E 008°26'4 8.0
2018-Jan-03 07:30N 53°35' E 008°31'1 1.2
2018-Jan-03 07:00N 53°35' E 008°32'0 0.0
2018-Jan-03 06:30N 53°35' E 008°32'0 0.0
2018-Jan-03 06:00N 53°35' E 008°32'0 0.0
2018-Jan-03 05:29N 53°35' E 008°32'0 0.0
2018-Jan-03 04:59N 53°35' E 008°32'0 0.0
2018-Jan-03 04:29N 53°35' E 008°32'0 0.0
2018-Jan-03 03:59N 53°35' E 008°32'0 0.0
2018-Jan-03 03:29N 53°35' E 008°32'0 0.0
2018-Jan-03 02:59N 53°35' E 008°32'0 0.0
2018-Jan-03 02:29N 53°35' E 008°32'0 0.0
2018-Jan-03 01:59N 53°35' E 008°32'0 0.0
2018-Jan-03 01:29N 53°35' E 008°32'0 0.0
2018-Jan-03 00:59N 53°35' E 008°32'0 0.0
2018-Jan-03 00:29N 53°35' E 008°32'0 0.0
2018-Jan-02 23:59N 53°35' E 008°32'0 0.0
2018-Jan-02 23:29N 53°35' E 008°32'0 0.0
2018-Jan-02 22:59N 53°35' E 008°32'0 0.0
2018-Jan-02 22:29N 53°35' E 008°32'0 0.0
2018-Jan-02 21:59N 53°35' E 008°32'0 0.0
2018-Jan-02 21:29N 53°35' E 008°32'0 0.0
2018-Jan-02 20:59N 53°35' E 008°32'0 0.0
2018-Jan-02 20:29N 53°35' E 008°32'0 0.0
2018-Jan-02 19:59N 53°35' E 008°32'0 0.0
2018-Jan-02 19:29N 53°35' E 008°32'0 0.0
2018-Jan-02 18:53N 53°35' E 008°32'0 0.0
2018-Jan-02 18:29N 53°35' E 008°32'0 0.0
2018-Jan-02 17:59N 53°35' E 008°32'0 0.0
2018-Jan-02 17:29N 53°35' E 008°32'0 0.0
2018-Jan-02 16:59N 53°35' E 008°32'0 0.0
2018-Jan-02 16:29N 53°35' E 008°32'0 0.0
2018-Jan-02 15:59N 53°35' E 008°32'0 0.0
2018-Jan-02 15:29N 53°35' E 008°32'0 0.0
2018-Jan-02 14:59N 53°35' E 008°32'0 0.0
2018-Jan-02 14:29N 53°35' E 008°32'0 0.0
2018-Jan-02 13:59N 53°35' E 008°32'0 0.0
2018-Jan-02 13:29N 53°35' E 008°32'0 0.0
2018-Jan-02 12:59N 53°35' E 008°32'0 0.0
2018-Jan-02 12:29N 53°35' E 008°32'0 0.0
2018-Jan-02 11:59N 53°35' E 008°32'0 0.0
2018-Jan-02 11:29N 53°35' E 008°32'0 0.0
2018-Jan-02 10:59N 53°35' E 008°32'0 0.0
2018-Jan-02 10:29N 53°35' E 008°32'0 0.0
2018-Jan-02 09:59N 53°35' E 008°32'0 0.0
2018-Jan-02 09:29N 53°35' E 008°32'0 0.0
2018-Jan-02 08:29N 53°35' E 008°32'0 0.0
2018-Jan-02 07:59N 53°35' E 008°32'0 0.0
2018-Jan-02 07:29N 53°35' E 008°32'0 0.0
2018-Jan-02 06:59N 53°35' E 008°32'0 0.0
2018-Jan-02 06:29N 53°35' E 008°32'0 0.0
2018-Jan-02 05:59N 53°35' E 008°32'0 0.0
2018-Jan-02 05:29N 53°35' E 008°32'0 0.0
2018-Jan-02 04:29N 53°35' E 008°32'0 0.0
2018-Jan-02 03:59N 53°35' E 008°32'0 0.0
2018-Jan-02 03:29N 53°35' E 008°32'0 0.0
2018-Jan-02 02:59N 53°35' E 008°32'0 0.0
2018-Jan-02 02:29N 53°35' E 008°32'0 0.0
2018-Jan-02 01:59N 53°35' E 008°32'0 0.0
2018-Jan-02 01:29N 53°35' E 008°32'0 0.0
2018-Jan-02 00:59N 53°35' E 008°32'0 0.0
2018-Jan-02 00:29N 53°35' E 008°32'0 0.0
2018-Jan-01 23:59N 53°35' E 008°32'0 0.0
2018-Jan-01 23:29N 53°35' E 008°32'0 0.0
2018-Jan-01 22:59N 53°35' E 008°32'0 0.0
2018-Jan-01 22:29N 53°35' E 008°32'1 1.1
2018-Jan-01 22:00N 53°35' E 008°31'2 4.7
2018-Jan-01 21:30N 53°37' E 008°29'612.5
2018-Jan-01 21:00N 53°41' E 008°21'917.9
2018-Jan-01 20:31N 53°47' E 008°09'917.2
2018-Jan-01 20:00N 53°51' E 007°57'  
Track history (hours):
 
Tides and Currents Weather Stations Pressure Air Temp Water Temp Dewpoint Dewpoint Depression Visibility Wind Speed Wind Dir Waves Ship Positions

Marchen Maersk

Last reported at 2018-Jan-11 19:39 UTC. Time now 2018-Jan-19 19:45 UTC.
Position N 36°21' E 015°02'.
Warning: this ship's position is 8 days out of date.

Length 399 m; draft 13.4 m.

Type: Ship. MMSI: 219630000.

Date/timePositionNaut miles runAvg speedWind from/ knotsBaromVisibWave heightAir tempDewpointWater temp
2018-Jan-11 19:39N 36°21' E 015°02'320.2
2018-Jan-11 19:30N 36°22' E 014°59'1020.1
2018-Jan-11 18:59N 36°25' E 014°47'1020.1
2018-Jan-11 18:30N 36°28' E 014°35'1020.1
2018-Jan-11 18:00N 36°31' E 014°23'1020.0
2018-Jan-11 17:30N 36°34' E 014°11'1020.1
2018-Jan-11 17:00N 36°37' E 013°60'1120.5
2018-Jan-11 16:28N 36°41' E 013°47'920.2
2018-Jan-11 16:00N 36°44' E 013°36'90019.9
2018-Jan-09 18:39N 36°01' W 005°01'420.4
2018-Jan-09 18:29N 36°00' W 005°05'1021.0
2018-Jan-09 18:00N 35°59' W 005°17'1020.8
2018-Jan-09 17:30N 35°57' W 005°30'1019.3
2018-Jan-09 17:00N 35°55' W 005°41'1018.5
2018-Jan-09 16:30N 35°54' W 005°53'1018.6
2018-Jan-09 15:57N 35°53' W 006°06'817.8
2018-Jan-09 15:30N 35°55' W 006°15'20316.9
2018-Jan-09 03:27N 37°44' W 009°50'1518.1
2018-Jan-09 02:37N 37°59' W 009°55'1718.6
2018-Jan-09 01:41N 38°16' W 009°59'419.1
2018-Jan-09 01:30N 38°19' W 010°00'918.9
2018-Jan-09 01:01N 38°28' W 010°03'1018.8
2018-Jan-09 00:30N 38°38' W 010°06'918.8
2018-Jan-09 00:00N 38°47' W 010°07'918.8
2018-Jan-08 23:30N 38°56' W 010°07'918.8
2018-Jan-08 23:00N 39°05' W 010°06'1018.8
2018-Jan-08 22:28N 39°16' W 010°05'919.1
2018-Jan-08 22:01N 39°24' W 010°04'66717.9
2018-Jan-07 08:51N 49°36' W 003°51'816.0
2018-Jan-07 08:23N 49°39' W 003°41'616.3
2018-Jan-07 08:00N 49°42' W 003°33'816.6
2018-Jan-07 07:30N 49°46' W 003°22'917.2
2018-Jan-07 07:00N 49°51' W 003°10'918.0
2018-Jan-07 06:30N 49°55' W 002°58'918.6
2018-Jan-07 06:01N 49°59' W 002°45'1019.5
2018-Jan-07 05:30N 50°01' W 002°30'4419.7
2018-Jan-07 03:18N 50°13' W 001°25'518.0
2018-Jan-07 03:00N 50°14' W 001°17'1616.7
2018-Jan-07 02:02N 50°19' W 000°52'115.8
2018-Jan-07 01:58N 50°19' W 000°51'715.3
2018-Jan-07 01:30N 50°21' W 000°40'1514.7
2018-Jan-07 00:30N 50°26' W 000°18'714.7
2018-Jan-07 00:00N 50°27' W 000°07'815.2
2018-Jan-06 23:30N 50°29' E 000°05'815.6
2018-Jan-06 23:00N 50°32' E 000°16'816.2
2018-Jan-06 22:30N 50°34' E 000°28'917.0
2018-Jan-06 22:00N 50°38' E 000°40'918.2
2018-Jan-06 21:30N 50°44' E 000°52'918.9
2018-Jan-06 21:00N 50°49' E 001°04'919.0
2018-Jan-06 20:30N 50°55' E 001°16'918.9
2018-Jan-06 20:00N 51°01' E 001°27'917.9
2018-Jan-06 19:30N 51°07' E 001°37'817.0
2018-Jan-06 19:00N 51°13' E 001°47'816.0
2018-Jan-06 18:31N 51°20' E 001°53'815.3
2018-Jan-06 18:00N 51°27' E 001°60'715.0
2018-Jan-06 17:31N 51°32' E 002°08'714.9
2018-Jan-06 17:01N 51°38' E 002°16'714.8
2018-Jan-06 16:30N 51°43' E 002°24'3614.7
2018-Jan-06 14:02N 51°59' E 003°17'116.9
2018-Jan-06 13:59N 51°59' E 003°18'817.2
2018-Jan-06 13:30N 52°00' E 003°32'917.3
2018-Jan-06 13:00N 52°02' E 003°45'510.4
2018-Jan-06 12:30N 52°02' E 003°54'510.8
2018-Jan-06 12:00N 51°60' E 004°02'2 5.0
2018-Jan-06 11:30N 51°58' E 004°04'2 4.9
2018-Jan-06 11:00N 51°59' E 004°00'1 2.4
2018-Jan-06 10:30N 51°57' E 004°00'0 0.2
2018-Jan-06 09:58N 51°57' E 004°00'0 0.0
2018-Jan-06 09:28N 51°57' E 004°00'0 0.0
2018-Jan-06 08:58N 51°57' E 004°00'0 0.0
2018-Jan-06 08:28N 51°57' E 004°00'0 0.0
2018-Jan-06 07:58N 51°57' E 004°00'0 0.0
2018-Jan-06 07:28N 51°57' E 004°00'0 0.0
2018-Jan-06 06:58N 51°57' E 004°00'0 0.0
2018-Jan-06 06:28N 51°57' E 004°00'0 0.0
2018-Jan-06 05:58N 51°57' E 004°00'0 0.0
2018-Jan-06 05:28N 51°57' E 004°00'0 0.0
2018-Jan-06 04:58N 51°57' E 004°00'0 0.0
2018-Jan-06 04:28N 51°57' E 004°00'0 0.0
2018-Jan-06 03:58N 51°57' E 004°00'0 0.0
2018-Jan-06 03:28N 51°57' E 004°00'0 0.0
2018-Jan-06 02:58N 51°57' E 004°00'0 0.0
2018-Jan-06 02:28N 51°57' E 004°00'0 0.0
2018-Jan-06 01:58N 51°57' E 004°00'0 0.0
2018-Jan-06 01:28N 51°57' E 004°00'0 0.0
2018-Jan-06 00:58N 51°57' E 004°00'0 0.0
2018-Jan-06 00:28N 51°57' E 004°00'0 0.0
2018-Jan-05 23:58N 51°57' E 004°00'0 0.0
2018-Jan-05 23:28N 51°57' E 004°00'0 0.0
2018-Jan-05 22:58N 51°57' E 004°00'0 0.0
2018-Jan-05 22:28N 51°57' E 004°00'0 0.0
2018-Jan-05 21:58N 51°57' E 004°00'0 0.0
2018-Jan-05 21:28N 51°57' E 004°00'0 0.0
2018-Jan-05 20:58N 51°57' E 004°00'0 0.0
2018-Jan-05 20:28N 51°57' E 004°00'0 0.0
2018-Jan-05 19:58N 51°57' E 004°00'0 0.0
2018-Jan-05 19:28N 51°57' E 004°00'0 0.0
2018-Jan-05 18:58N 51°57' E 004°00'0 0.0
2018-Jan-05 18:28N 51°57' E 004°00'0 0.0
2018-Jan-05 17:58N 51°57' E 004°00'0 0.0
2018-Jan-05 17:28N 51°57' E 004°00'0 0.0
2018-Jan-05 16:58N 51°57' E 004°00'0 0.0
2018-Jan-05 16:28N 51°57' E 004°00'0 0.0
2018-Jan-05 15:58N 51°57' E 004°00'0 0.0
2018-Jan-05 15:28N 51°57' E 004°00'0 0.0
2018-Jan-05 14:58N 51°57' E 004°00'0 0.0
2018-Jan-05 14:28N 51°57' E 004°00'0 0.0
2018-Jan-05 13:58N 51°57' E 004°00'0 0.0
2018-Jan-05 13:25N 51°57' E 004°00'0 0.0
2018-Jan-05 12:58N 51°57' E 004°00'0 0.0
2018-Jan-05 12:28N 51°57' E 004°00'0 0.0
2018-Jan-05 11:58N 51°57' E 004°00'0 0.0
2018-Jan-05 11:28N 51°57' E 004°00'0 0.0
2018-Jan-05 10:58N 51°57' E 004°00'0 0.0
2018-Jan-05 10:25N 51°57' E 004°00'0 0.0
2018-Jan-05 09:58N 51°57' E 004°00'0 0.0
2018-Jan-05 09:28N 51°57' E 004°00'0 0.0
2018-Jan-05 08:58N 51°57' E 004°00'0 0.0
2018-Jan-05 08:28N 51°57' E 004°00'0 0.0
2018-Jan-05 07:58N 51°57' E 004°00'0 0.0
2018-Jan-05 07:28N 51°57' E 004°00'0 0.0
2018-Jan-05 06:58N 51°57' E 004°00'0 0.0
2018-Jan-05 06:28N 51°57' E 004°00'0 0.0
2018-Jan-05 05:58N 51°57' E 004°00'0 0.0
2018-Jan-05 05:28N 51°57' E 004°00'0 0.0
2018-Jan-05 04:58N 51°57' E 004°00'0 0.0
2018-Jan-05 04:28N 51°57' E 004°00'0 0.0
2018-Jan-05 03:58N 51°57' E 004°00'0 0.0
2018-Jan-05 03:28N 51°57' E 004°00'0 0.0
2018-Jan-05 02:58N 51°57' E 004°00'0 0.0
2018-Jan-05 02:28N 51°57' E 004°00'0 0.0
2018-Jan-05 01:58N 51°57' E 004°00'0 0.0
2018-Jan-05 01:28N 51°57' E 004°00'0 0.0
2018-Jan-05 00:58N 51°57' E 004°00'0 0.0
2018-Jan-05 00:28N 51°57' E 004°00'0 0.0
2018-Jan-04 23:58N 51°57' E 004°00'0 0.0
2018-Jan-04 23:28N 51°57' E 004°00'0 0.0
2018-Jan-04 22:58N 51°57' E 004°00'0 0.0
2018-Jan-04 22:28N 51°57' E 004°00'0 0.0
2018-Jan-04 21:58N 51°57' E 004°00'0 0.0
2018-Jan-04 21:28N 51°57' E 004°00'0 0.0
2018-Jan-04 20:58N 51°57' E 004°00'0 0.0
2018-Jan-04 20:28N 51°57' E 004°00'0 0.0
2018-Jan-04 19:58N 51°57' E 004°00'0 0.0
2018-Jan-04 19:28N 51°57' E 004°00'0 0.0
2018-Jan-04 18:58N 51°57' E 004°00'0 0.0
2018-Jan-04 18:28N 51°57' E 004°00'0 0.0
2018-Jan-04 17:58N 51°57' E 004°00'0 0.0
2018-Jan-04 17:28N 51°57' E 004°00'0 0.0
2018-Jan-04 16:58N 51°57' E 004°00'0 0.0
2018-Jan-04 16:28N 51°57' E 004°00'0 0.0
2018-Jan-04 15:58N 51°57' E 004°00'0 0.0
2018-Jan-04 15:28N 51°57' E 004°00'0 0.0
2018-Jan-04 14:58N 51°57' E 004°00'0 0.0
2018-Jan-04 14:28N 51°57' E 004°00'0 0.0
2018-Jan-04 13:58N 51°57' E 004°00'0 0.0
2018-Jan-04 13:28N 51°57' E 004°00'0 0.0
2018-Jan-04 12:58N 51°57' E 004°00'0 0.0
2018-Jan-04 12:25N 51°57' E 004°00'0 0.0
2018-Jan-04 11:58N 51°57' E 004°00'0 0.0
2018-Jan-04 11:28N 51°57' E 004°00'0 0.0
2018-Jan-04 10:58N 51°57' E 004°00'0 0.0
2018-Jan-04 10:28N 51°57' E 004°00'0 0.0
2018-Jan-04 09:58N 51°57' E 004°00'0 0.0
2018-Jan-04 09:28N 51°57' E 004°00'0 0.1
2018-Jan-04 09:01N 51°57' E 004°00'1 2.0
2018-Jan-04 08:30N 51°58' E 003°60'3 5.1
2018-Jan-04 08:00N 51°58' E 004°04'1 2.6
2018-Jan-04 07:30N 51°59' E 004°03'612.4
2018-Jan-04 07:00N 52°02' E 003°54'612.1
2018-Jan-04 06:30N 52°01' E 003°44'3 6.5
2018-Jan-04 06:00N 52°05' E 003°45'4 8.9
2018-Jan-04 05:30N 52°09' E 003°46'5 9.9
2018-Jan-04 05:00N 52°14' E 003°46'5 9.9
2018-Jan-04 04:30N 52°19' E 003°48'5 9.9
2018-Jan-04 04:00N 52°24' E 003°49'5 9.7
2018-Jan-04 03:31N 52°28' E 003°51'713.3
2018-Jan-04 03:00N 52°35' E 003°53'713.8
2018-Jan-04 02:30N 52°42' E 003°54'714.4
2018-Jan-04 02:00N 52°49' E 003°56'714.5
2018-Jan-04 01:30N 52°56' E 003°59'714.0
2018-Jan-04 01:00N 53°01' E 004°07'714.2
2018-Jan-04 00:30N 53°06' E 004°16'714.2
2018-Jan-04 00:00N 53°11' E 004°24'714.6
2018-Jan-03 23:31N 53°17' E 004°28'714.0
2018-Jan-03 22:59N 53°24' E 004°34'611.9
2018-Jan-03 22:29N 53°29' E 004°40'511.4
2018-Jan-03 22:00N 53°32' E 004°47'510.8
2018-Jan-03 21:30N 53°33' E 004°56'4 8.0
2018-Jan-03 21:00N 53°35' E 005°03'3 6.9
2018-Jan-03 20:30N 53°36' E 005°08'3 6.5
2018-Jan-03 20:00N 53°37' E 005°13'3 6.4
2018-Jan-03 19:30N 53°38' E 005°18'3 5.7
2018-Jan-03 19:00N 53°39' E 005°23'3 5.9
2018-Jan-03 18:30N 53°40' E 005°27'3 6.3
2018-Jan-03 18:00N 53°41' E 005°32'3 6.5
2018-Jan-03 17:30N 53°42' E 005°38'7411.2
2018-Jan-03 10:54N 53°60' E 007°39'715.3
2018-Jan-03 10:27N 53°54' E 007°45'613.2
2018-Jan-03 09:59N 53°52' E 007°55'612.6
2018-Jan-03 09:30N 53°50' E 008°05'612.3
2018-Jan-03 09:00N 53°45' E 008°12'611.4
2018-Jan-03 08:30N 53°42' E 008°20'611.2
2018-Jan-03 08:00N 53°38' E 008°26'4 8.0
2018-Jan-03 07:30N 53°35' E 008°31'1 1.2
2018-Jan-03 07:00N 53°35' E 008°32'0 0.0
2018-Jan-03 06:30N 53°35' E 008°32'0 0.0
2018-Jan-03 06:00N 53°35' E 008°32'0 0.0
2018-Jan-03 05:29N 53°35' E 008°32'0 0.0
2018-Jan-03 04:59N 53°35' E 008°32'0 0.0
2018-Jan-03 04:29N 53°35' E 008°32'0 0.0
2018-Jan-03 03:59N 53°35' E 008°32'0 0.0
2018-Jan-03 03:29N 53°35' E 008°32'0 0.0
2018-Jan-03 02:59N 53°35' E 008°32'0 0.0
2018-Jan-03 02:29N 53°35' E 008°32'0 0.0
2018-Jan-03 01:59N 53°35' E 008°32'0 0.0
2018-Jan-03 01:29N 53°35' E 008°32'0 0.0
2018-Jan-03 00:59N 53°35' E 008°32'0 0.0
2018-Jan-03 00:29N 53°35' E 008°32'0 0.0
2018-Jan-02 23:59N 53°35' E 008°32'0 0.0
2018-Jan-02 23:29N 53°35' E 008°32'0 0.0
2018-Jan-02 22:59N 53°35' E 008°32'0 0.0
2018-Jan-02 22:29N 53°35' E 008°32'0 0.0
2018-Jan-02 21:59N 53°35' E 008°32'0 0.0
2018-Jan-02 21:29N 53°35' E 008°32'0 0.0
2018-Jan-02 20:59N 53°35' E 008°32'0 0.0
2018-Jan-02 20:29N 53°35' E 008°32'0 0.0
2018-Jan-02 19:59N 53°35' E 008°32'0 0.0
2018-Jan-02 19:29N 53°35' E 008°32'0 0.0
2018-Jan-02 18:53N 53°35' E 008°32'0 0.0
2018-Jan-02 18:29N 53°35' E 008°32'0 0.0
2018-Jan-02 17:59N 53°35' E 008°32'0 0.0
2018-Jan-02 17:29N 53°35' E 008°32'0 0.0
2018-Jan-02 16:59N 53°35' E 008°32'0 0.0
2018-Jan-02 16:29N 53°35' E 008°32'0 0.0
2018-Jan-02 15:59N 53°35' E 008°32'0 0.0
2018-Jan-02 15:29N 53°35' E 008°32'0 0.0
2018-Jan-02 14:59N 53°35' E 008°32'0 0.0
2018-Jan-02 14:29N 53°35' E 008°32'0 0.0
2018-Jan-02 13:59N 53°35' E 008°32'0 0.0
2018-Jan-02 13:29N 53°35' E 008°32'0 0.0
2018-Jan-02 12:59N 53°35' E 008°32'0 0.0
2018-Jan-02 12:29N 53°35' E 008°32'0 0.0
2018-Jan-02 11:59N 53°35' E 008°32'0 0.0
2018-Jan-02 11:29N 53°35' E 008°32'0 0.0
2018-Jan-02 10:59N 53°35' E 008°32'0 0.0
2018-Jan-02 10:29N 53°35' E 008°32'0 0.0
2018-Jan-02 09:59N 53°35' E 008°32'0 0.0
2018-Jan-02 09:29N 53°35' E 008°32'0 0.0
2018-Jan-02 08:29N 53°35' E 008°32'0 0.0
2018-Jan-02 07:59N 53°35' E 008°32'0 0.0
2018-Jan-02 07:29N 53°35' E 008°32'0 0.0
2018-Jan-02 06:59N 53°35' E 008°32'0 0.0
2018-Jan-02 06:29N 53°35' E 008°32'0 0.0
2018-Jan-02 05:59N 53°35' E 008°32'0 0.0
2018-Jan-02 05:29N 53°35' E 008°32'0 0.0
2018-Jan-02 04:29N 53°35' E 008°32'0 0.0
2018-Jan-02 03:59N 53°35' E 008°32'0 0.0
2018-Jan-02 03:29N 53°35' E 008°32'0 0.0
2018-Jan-02 02:59N 53°35' E 008°32'0 0.0
2018-Jan-02 02:29N 53°35' E 008°32'0 0.0
2018-Jan-02 01:59N 53°35' E 008°32'0 0.0
2018-Jan-02 01:29N 53°35' E 008°32'0 0.0
2018-Jan-02 00:59N 53°35' E 008°32'0 0.0
2018-Jan-02 00:29N 53°35' E 008°32'0 0.0
2018-Jan-01 23:59N 53°35' E 008°32'0 0.0
2018-Jan-01 23:29N 53°35' E 008°32'0 0.0
2018-Jan-01 22:59N 53°35' E 008°32'0 0.0
2018-Jan-01 22:29N 53°35' E 008°32'1 1.1
2018-Jan-01 22:00N 53°35' E 008°31'2 4.7
2018-Jan-01 21:30N 53°37' E 008°29'612.5
2018-Jan-01 21:00N 53°41' E 008°21'917.9
2018-Jan-01 20:31N 53°47' E 008°09'917.2
2018-Jan-01 20:00N 53°51' E 007°57'  

Dump ship's entire track history